createdAt,value
2018-03-19T00:00:34.444Z,971.93
2018-03-19T00:01:34.426Z,971.96
2018-03-19T00:02:34.499Z,971.98
2018-03-19T00:03:34.400Z,971.95
2018-03-19T00:04:35.175Z,971.98
2018-03-19T00:05:34.402Z,971.93
2018-03-19T00:06:34.374Z,971.97
2018-03-19T00:07:34.719Z,971.98
2018-03-19T00:08:35.147Z,971.94
2018-03-19T00:09:34.345Z,971.98
2018-03-19T00:10:34.358Z,971.94
2018-03-19T00:11:34.354Z,971.94
2018-03-19T00:12:35.159Z,971.98
2018-03-19T00:13:35.182Z,971.94
2018-03-19T00:16:09.106Z,971.96
2018-03-19T00:17:08.906Z,971.93
2018-03-19T00:18:09.510Z,971.90
2018-03-19T00:19:08.822Z,971.88
2018-03-19T00:20:08.795Z,971.94
2018-03-19T00:21:09.444Z,971.94
2018-03-19T00:22:08.795Z,971.96
2018-03-19T00:23:08.811Z,971.92
2018-03-19T00:24:09.523Z,971.92
2018-03-19T00:25:08.794Z,971.95
2018-03-19T00:26:08.748Z,971.94
2018-03-19T00:27:08.744Z,971.98
2018-03-19T00:28:09.523Z,971.96
2018-03-19T00:29:09.352Z,971.96
2018-03-19T00:30:08.716Z,971.92
2018-03-19T00:31:08.689Z,971.97
2018-03-19T00:32:09.501Z,971.96
2018-03-19T00:33:09.007Z,971.95
2018-03-19T00:34:08.654Z,971.96
2018-03-19T00:35:09.506Z,971.93
2018-03-19T00:37:43.412Z,971.95
2018-03-19T00:38:43.177Z,971.87
2018-03-19T00:39:43.148Z,971.84
2018-03-19T00:40:43.847Z,971.90
2018-03-19T00:41:43.136Z,971.86
2018-03-19T00:42:43.178Z,971.81
2018-03-19T00:43:43.109Z,971.89
2018-03-19T00:44:43.877Z,971.85
2018-03-19T00:45:43.131Z,971.87
2018-03-19T00:46:43.850Z,971.85
2018-03-19T00:47:43.094Z,971.85
2018-03-19T00:48:43.877Z,971.84
2018-03-19T00:49:43.072Z,971.78
2018-03-19T00:50:43.042Z,971.76
2018-03-19T00:51:43.018Z,971.78
2018-03-19T00:52:43.065Z,971.78
2018-03-19T00:53:42.995Z,971.76
2018-03-19T00:54:42.990Z,971.78
2018-03-19T00:55:43.012Z,971.77
2018-03-19T00:56:43.701Z,971.74
2018-03-19T00:59:17.752Z,971.76
2018-03-19T01:00:17.575Z,971.73
2018-03-19T01:01:17.446Z,971.70
2018-03-19T01:02:17.442Z,971.70
2018-03-19T01:03:17.685Z,971.73
2018-03-19T01:04:17.479Z,971.76
2018-03-19T01:05:17.436Z,971.75
2018-03-19T01:06:17.429Z,971.72
2018-03-19T01:07:17.445Z,971.71
2018-03-19T01:08:17.433Z,971.75
2018-03-19T01:09:17.389Z,971.76
2018-03-19T01:10:17.369Z,971.72
2018-03-19T01:11:17.371Z,971.70
2018-03-19T01:12:17.671Z,971.70
2018-03-19T01:13:18.189Z,971.71
2018-03-19T01:14:18.178Z,971.71
2018-03-19T01:15:17.303Z,971.69
2018-03-19T01:16:18.158Z,971.65
2018-03-19T01:17:17.322Z,971.66
2018-03-19T01:18:18.183Z,971.66
2018-03-19T01:19:40.150Z,971.64
2018-03-19T01:20:17.273Z,971.68
2018-03-19T01:21:17.706Z,971.64
2018-03-19T01:22:18.173Z,971.67
2018-03-19T01:23:18.174Z,971.68
2018-03-19T01:24:17.221Z,971.64
2018-03-19T01:25:17.660Z,971.66
2018-03-19T01:26:17.263Z,971.62
2018-03-19T01:27:17.198Z,971.61
2018-03-19T01:28:17.222Z,971.62
2018-03-19T01:29:17.211Z,971.60
2018-03-19T01:30:18.203Z,971.58
2018-03-19T01:31:17.662Z,971.60
2018-03-19T01:32:17.663Z,971.61
2018-03-19T01:33:17.661Z,971.58
2018-03-19T01:34:17.663Z,971.57
2018-03-19T01:35:17.086Z,971.58
2018-03-19T01:36:17.666Z,971.57
2018-03-19T01:37:17.166Z,971.58
2018-03-19T01:38:17.672Z,971.55
2018-03-19T01:39:17.096Z,971.60
2018-03-19T01:41:52.066Z,971.59
2018-03-19T01:42:51.967Z,971.53
2018-03-19T01:43:51.891Z,971.47
2018-03-19T01:44:51.844Z,971.57
2018-03-19T01:45:51.846Z,971.54
2018-03-19T01:46:52.764Z,971.54
2018-03-19T01:47:52.261Z,971.54
2018-03-19T01:48:51.805Z,971.55
2018-03-19T01:49:52.760Z,971.52
2018-03-19T01:50:52.776Z,971.52
2018-03-19T01:51:51.793Z,971.49
2018-03-19T01:52:52.804Z,971.53
2018-03-19T01:53:52.295Z,971.51
2018-03-19T01:54:52.237Z,971.49
2018-03-19T01:55:51.721Z,971.46
2018-03-19T01:56:51.756Z,971.46
2018-03-19T01:57:51.770Z,971.47
2018-03-19T01:58:51.696Z,971.47
2018-03-19T01:59:51.700Z,971.47
2018-03-19T02:00:51.672Z,971.44
2018-03-19T02:03:26.498Z,971.47
2018-03-19T02:04:26.204Z,971.47
2018-03-19T02:05:26.182Z,971.48
2018-03-19T02:06:26.212Z,971.47
2018-03-19T02:07:26.225Z,971.49
2018-03-19T02:08:26.140Z,971.48
2018-03-19T02:09:26.902Z,971.44
2018-03-19T02:10:26.121Z,971.47
2018-03-19T02:11:26.112Z,971.45
2018-03-19T02:12:26.143Z,971.44
2018-03-19T02:13:26.361Z,971.46
2018-03-19T02:14:26.853Z,971.47
2018-03-19T02:15:26.075Z,971.46
2018-03-19T02:16:26.897Z,971.46
2018-03-19T02:17:26.065Z,971.48
2018-03-19T02:18:26.038Z,971.49
2018-03-19T02:19:26.861Z,971.48
2018-03-19T02:20:26.868Z,971.45
2018-03-19T02:21:26.004Z,971.47
2018-03-19T02:22:26.866Z,971.46
2018-03-19T02:25:00.825Z,971.44
2018-03-19T02:26:00.574Z,971.44
2018-03-19T02:27:00.489Z,971.43
2018-03-19T02:28:00.479Z,971.46
2018-03-19T02:29:01.169Z,971.48
2018-03-19T02:30:00.429Z,971.46
2018-03-19T02:31:00.453Z,971.46
2018-03-19T02:32:00.458Z,971.45
2018-03-19T02:33:01.157Z,971.47
2018-03-19T02:34:01.180Z,971.41
2018-03-19T02:35:00.435Z,971.41
2018-03-19T02:36:00.421Z,971.40
2018-03-19T02:37:00.410Z,971.41
2018-03-19T02:38:01.191Z,971.42
2018-03-19T02:39:01.234Z,971.45
2018-03-19T02:40:01.183Z,971.42
2018-03-19T02:41:00.345Z,971.44
2018-03-19T02:42:00.362Z,971.42
2018-03-19T02:43:00.290Z,971.42
2018-03-19T02:44:01.201Z,971.43
2018-03-19T02:45:26.206Z,971.46
2018-03-19T02:46:00.296Z,971.46
2018-03-19T02:47:00.273Z,971.44
2018-03-19T02:48:00.296Z,971.43
2018-03-19T02:49:01.161Z,971.44
2018-03-19T02:50:01.180Z,971.46
2018-03-19T02:51:00.213Z,971.43
2018-03-19T02:52:00.698Z,971.44
2018-03-19T02:53:00.207Z,971.44
2018-03-19T02:54:00.197Z,971.40
2018-03-19T02:55:00.169Z,971.40
2018-03-19T02:56:00.427Z,971.42
2018-03-19T02:57:00.207Z,971.42
2018-03-19T02:58:00.787Z,971.44
2018-03-19T02:59:01.158Z,971.45
2018-03-19T03:00:00.127Z,971.45
2018-03-19T03:01:00.086Z,971.46
2018-03-19T03:02:00.137Z,971.44
2018-03-19T03:03:00.084Z,971.48
2018-03-19T03:04:00.688Z,971.48
2018-03-19T03:05:00.066Z,971.50
2018-03-19T03:07:34.798Z,971.53
2018-03-19T03:08:34.578Z,971.50
2018-03-19T03:09:35.257Z,971.49
2018-03-19T03:10:34.581Z,971.52
2018-03-19T03:11:34.560Z,971.50
2018-03-19T03:12:35.244Z,971.53
2018-03-19T03:13:34.515Z,971.54
2018-03-19T03:14:34.732Z,971.56
2018-03-19T03:15:35.263Z,971.56
2018-03-19T03:16:35.249Z,971.60
2018-03-19T03:17:35.268Z,971.59
2018-03-19T03:18:35.250Z,971.60
2018-03-19T03:19:35.246Z,971.58
2018-03-19T03:20:34.469Z,971.61
2018-03-19T03:21:34.492Z,971.60
2018-03-19T03:22:34.437Z,971.61
2018-03-19T03:23:34.402Z,971.59
2018-03-19T03:24:35.248Z,971.60
2018-03-19T03:25:34.416Z,971.59
2018-03-19T03:26:35.278Z,971.64
2018-03-19T03:29:10.349Z,971.72
2018-03-19T03:30:10.618Z,971.72
2018-03-19T03:31:10.081Z,971.65
2018-03-19T03:32:09.872Z,971.68
2018-03-19T03:33:09.861Z,971.65
2018-03-19T03:34:10.562Z,971.66
2018-03-19T03:35:10.070Z,971.64
2018-03-19T03:36:10.107Z,971.64
2018-03-19T03:37:09.863Z,971.64
2018-03-19T03:38:10.577Z,971.61
2018-03-19T03:39:09.809Z,971.61
2018-03-19T03:40:09.799Z,971.61
2018-03-19T03:41:10.554Z,971.59
2018-03-19T03:42:09.799Z,971.61
2018-03-19T03:43:10.576Z,971.61
2018-03-19T03:44:09.714Z,971.61
2018-03-19T03:45:09.789Z,971.65
2018-03-19T03:46:10.083Z,971.62
2018-03-19T03:47:09.729Z,971.60
2018-03-19T03:48:09.696Z,971.62
2018-03-19T03:50:44.498Z,971.69
2018-03-19T03:51:44.908Z,971.64
2018-03-19T03:52:44.198Z,971.61
2018-03-19T03:53:44.902Z,971.66
2018-03-19T03:54:44.897Z,971.66
2018-03-19T03:55:44.239Z,971.66
2018-03-19T03:56:44.141Z,971.64
2018-03-19T03:57:44.186Z,971.70
2018-03-19T03:58:45.749Z,971.63
2018-03-19T03:59:44.133Z,971.66
2018-03-19T04:00:44.567Z,971.63
2018-03-19T04:01:44.102Z,971.65
2018-03-19T04:02:44.109Z,971.64
2018-03-19T04:03:44.893Z,971.65
2018-03-19T04:04:44.080Z,971.66
2018-03-19T04:05:44.892Z,971.62
2018-03-19T04:06:44.037Z,971.64
2018-03-19T04:07:44.517Z,971.70
2018-03-19T04:08:44.007Z,971.69
2018-03-19T04:09:44.418Z,971.68
2018-03-19T04:12:19.824Z,971.75
2018-03-19T04:13:19.543Z,971.67
2018-03-19T04:14:19.516Z,971.70
2018-03-19T04:15:19.506Z,971.71
2018-03-19T04:16:20.218Z,971.76
2018-03-19T04:17:19.504Z,971.75
2018-03-19T04:18:19.500Z,971.76
2018-03-19T04:19:19.481Z,971.73
2018-03-19T04:20:19.544Z,971.76
2018-03-19T04:21:19.464Z,971.72
2018-03-19T04:22:20.230Z,971.73
2018-03-19T04:23:19.426Z,971.73
2018-03-19T04:24:19.447Z,971.75
2018-03-19T04:25:19.408Z,971.70
2018-03-19T04:26:20.203Z,971.71
2018-03-19T04:27:19.408Z,971.76
2018-03-19T04:28:19.374Z,971.75
2018-03-19T04:29:19.382Z,971.75
2018-03-19T04:30:19.357Z,971.74
2018-03-19T04:31:19.347Z,971.72
2018-03-19T04:33:54.164Z,971.70
2018-03-19T04:34:53.927Z,971.71
2018-03-19T04:35:53.839Z,971.69
2018-03-19T04:36:53.805Z,971.71
2018-03-19T04:37:54.010Z,971.69
2018-03-19T04:38:53.779Z,971.69
2018-03-19T04:39:53.782Z,971.70
2018-03-19T04:40:54.525Z,971.68
2018-03-19T04:41:53.730Z,971.69
2018-03-19T04:42:53.756Z,971.70
2018-03-19T04:43:53.703Z,971.72
2018-03-19T04:44:53.699Z,971.71
2018-03-19T04:45:53.698Z,971.71
2018-03-19T04:46:54.077Z,971.73
2018-03-19T04:47:53.712Z,971.71
2018-03-19T04:48:53.663Z,971.73
2018-03-19T04:49:53.643Z,971.75
2018-03-19T04:50:53.643Z,971.75
2018-03-19T04:51:53.628Z,971.79
2018-03-19T04:52:53.642Z,971.80
2018-03-19T04:55:28.338Z,971.80
2018-03-19T04:56:28.129Z,971.80
2018-03-19T04:57:28.162Z,971.80
2018-03-19T04:58:28.799Z,971.84
2018-03-19T04:59:28.097Z,971.87
2018-03-19T05:00:28.076Z,971.82
2018-03-19T05:01:28.820Z,971.82
2018-03-19T05:02:28.790Z,971.84
2018-03-19T05:03:28.080Z,971.87
2018-03-19T05:04:28.806Z,971.87
2018-03-19T05:05:28.037Z,971.89
2018-03-19T05:06:28.803Z,971.86
2018-03-19T05:07:28.035Z,971.86
2018-03-19T05:08:28.819Z,971.87
2018-03-19T05:09:27.992Z,971.87
2018-03-19T05:10:27.935Z,971.85
2018-03-19T05:11:27.995Z,971.85
2018-03-19T05:12:27.999Z,971.88
2018-03-19T05:13:27.935Z,971.88
2018-03-19T05:14:27.896Z,971.88
2018-03-19T05:17:03.061Z,971.88
2018-03-19T05:18:03.138Z,971.88
2018-03-19T05:19:02.429Z,971.93
2018-03-19T05:20:02.402Z,971.92
2018-03-19T05:21:02.434Z,971.93
2018-03-19T05:22:03.109Z,971.95
2018-03-19T05:23:02.403Z,971.94
2018-03-19T05:24:03.094Z,971.96
2018-03-19T05:25:02.369Z,971.97
2018-03-19T05:26:02.342Z,971.96
2018-03-19T05:27:03.112Z,971.95
2018-03-19T05:28:02.318Z,971.96
2018-03-19T05:29:02.292Z,971.95
2018-03-19T05:30:03.079Z,971.96
2018-03-19T05:31:02.290Z,971.96
2018-03-19T05:32:02.267Z,971.97
2018-03-19T05:33:02.233Z,971.99
2018-03-19T05:34:02.254Z,972.00
2018-03-19T05:35:02.214Z,972.01
2018-03-19T05:36:02.250Z,972.02
2018-03-19T05:38:38.085Z,972.08
2018-03-19T05:39:37.774Z,972.11
2018-03-19T05:40:37.698Z,972.06
2018-03-19T05:41:37.783Z,972.06
2018-03-19T05:42:37.694Z,972.12
2018-03-19T05:43:37.679Z,972.06
2018-03-19T05:44:37.671Z,972.08
2018-03-19T05:45:37.687Z,972.07
2018-03-19T05:46:37.918Z,972.09
2018-03-19T05:47:37.626Z,972.06
2018-03-19T05:48:37.646Z,972.06
2018-03-19T05:49:38.081Z,972.07
2018-03-19T05:50:38.434Z,972.10
2018-03-19T05:51:38.409Z,972.08
2018-03-19T05:52:37.594Z,972.09
2018-03-19T05:53:37.565Z,972.07
2018-03-19T05:54:37.539Z,972.08
2018-03-19T05:55:37.544Z,972.11
2018-03-19T05:56:37.901Z,972.08
2018-03-19T05:57:37.538Z,972.10
2018-03-19T06:00:12.274Z,972.15
2018-03-19T06:01:12.070Z,972.15
2018-03-19T06:02:12.026Z,972.13
2018-03-19T06:03:12.009Z,972.20
2018-03-19T06:04:11.972Z,972.18
2018-03-19T06:05:11.993Z,972.16
2018-03-19T06:06:12.016Z,972.17
2018-03-19T06:07:11.940Z,972.16
2018-03-19T06:08:11.942Z,972.19
2018-03-19T06:09:11.964Z,972.19
2018-03-19T06:10:11.920Z,972.21
2018-03-19T06:11:11.957Z,972.24
2018-03-19T06:12:11.909Z,972.26
2018-03-19T06:13:11.911Z,972.31
2018-03-19T06:14:11.892Z,972.29
2018-03-19T06:15:11.921Z,972.30
2018-03-19T06:16:11.848Z,972.29
2018-03-19T06:17:11.838Z,972.30
2018-03-19T06:18:11.835Z,972.29
2018-03-19T06:19:11.884Z,972.33
2018-03-19T06:21:46.595Z,972.38
2018-03-19T06:22:46.390Z,972.35
2018-03-19T06:23:46.341Z,972.37
2018-03-19T06:24:47.016Z,972.38
2018-03-19T06:25:46.357Z,972.35
2018-03-19T06:26:46.320Z,972.36
2018-03-19T06:27:46.332Z,972.40
2018-03-19T06:28:46.321Z,972.43
2018-03-19T06:29:46.270Z,972.44
2018-03-19T06:30:46.301Z,972.45
2018-03-19T06:31:46.263Z,972.43
2018-03-19T06:32:46.278Z,972.45
2018-03-19T06:33:46.275Z,972.47
2018-03-19T06:34:46.232Z,972.54
2018-03-19T06:35:46.274Z,972.48
2018-03-19T06:36:46.222Z,972.54
2018-03-19T06:37:46.208Z,972.46
2018-03-19T06:38:46.199Z,972.45
2018-03-19T06:39:46.247Z,972.45
2018-03-19T06:40:46.884Z,972.49
2018-03-19T06:41:57.044Z,972.48
2018-03-19T06:42:46.169Z,972.50
2018-03-19T06:43:46.156Z,972.51
2018-03-19T06:44:46.162Z,972.56
2018-03-19T06:45:46.183Z,972.53
2018-03-19T06:46:46.152Z,972.54
2018-03-19T06:47:46.133Z,972.53
2018-03-19T06:48:46.134Z,972.57
2018-03-19T06:49:46.181Z,972.56
2018-03-19T06:50:46.177Z,972.59
2018-03-19T06:51:46.097Z,972.64
2018-03-19T06:52:46.104Z,972.64
2018-03-19T06:53:46.089Z,972.67
2018-03-19T06:54:46.087Z,972.60
2018-03-19T06:55:46.134Z,972.64
2018-03-19T06:56:46.069Z,972.60
2018-03-19T06:57:46.052Z,972.61
2018-03-19T06:58:46.061Z,972.67
2018-03-19T06:59:46.071Z,972.64
2018-03-19T07:00:46.093Z,972.72
2018-03-19T07:01:46.039Z,972.65
2018-03-19T07:03:22.038Z,972.69
2018-03-19T07:03:46.027Z,972.69
2018-03-19T07:04:46.005Z,972.66
2018-03-19T07:05:46.078Z,972.71
2018-03-19T07:06:46.023Z,972.73
2018-03-19T07:07:45.998Z,972.72
2018-03-19T07:08:46.002Z,972.71
2018-03-19T07:09:45.989Z,972.67
2018-03-19T07:10:46.034Z,972.71
2018-03-19T07:11:45.993Z,972.71
2018-03-19T07:12:45.994Z,972.69
2018-03-19T07:13:45.974Z,972.68
2018-03-19T07:14:45.955Z,972.66
2018-03-19T07:15:46.023Z,972.73
2018-03-19T07:16:45.952Z,972.74
2018-03-19T07:17:45.968Z,972.74
2018-03-19T07:18:45.980Z,972.74
2018-03-19T07:19:45.933Z,972.70
2018-03-19T07:20:45.947Z,972.74
2018-03-19T07:21:46.018Z,972.76
2018-03-19T07:22:45.941Z,972.73
2018-03-19T07:23:46.586Z,972.73
2018-03-19T07:24:45.930Z,972.77
2018-03-19T07:25:45.930Z,972.76
2018-03-19T07:26:45.991Z,972.71
2018-03-19T07:27:45.910Z,972.72
2018-03-19T07:28:45.909Z,972.83
2018-03-19T07:29:45.906Z,972.82
2018-03-19T07:30:45.912Z,972.76
2018-03-19T07:31:45.962Z,972.82
2018-03-19T07:32:45.927Z,972.78
2018-03-19T07:33:45.890Z,972.80
2018-03-19T07:34:45.915Z,972.84
2018-03-19T07:35:45.887Z,972.78
2018-03-19T07:36:45.874Z,972.74
2018-03-19T07:37:45.916Z,972.80
2018-03-19T07:38:45.858Z,972.81
2018-03-19T07:39:45.883Z,972.81
2018-03-19T07:40:45.871Z,972.79
2018-03-19T07:41:45.913Z,972.82
2018-03-19T07:42:45.913Z,972.80
2018-03-19T07:43:45.892Z,972.84
2018-03-19T07:44:45.849Z,972.84
2018-03-19T07:45:45.856Z,972.84
2018-03-19T07:46:45.946Z,972.85
2018-03-19T07:47:45.996Z,972.92
2018-03-19T07:48:45.873Z,972.89
2018-03-19T07:49:45.869Z,972.91
2018-03-19T07:50:45.833Z,972.93
2018-03-19T07:51:45.846Z,972.90
2018-03-19T07:52:45.861Z,972.86
2018-03-19T07:53:45.871Z,972.91
2018-03-19T07:54:45.839Z,972.91
2018-03-19T07:55:45.839Z,972.88
2018-03-19T07:56:45.839Z,972.92
2018-03-19T07:57:45.879Z,972.97
2018-03-19T07:58:45.808Z,972.96
2018-03-19T07:59:45.845Z,972.91
2018-03-19T08:00:45.816Z,972.91
2018-03-19T08:01:45.824Z,972.94
2018-03-19T08:02:46.383Z,973.00
2018-03-19T08:03:45.825Z,972.97
2018-03-19T08:04:45.827Z,972.98
2018-03-19T08:05:45.876Z,972.98
2018-03-19T08:06:45.824Z,972.96
2018-03-19T08:07:45.862Z,972.96
2018-03-19T08:08:45.892Z,973.02
2018-03-19T08:09:45.816Z,972.95
2018-03-19T08:10:45.818Z,972.98
2018-03-19T08:11:45.800Z,972.98
2018-03-19T08:12:45.836Z,972.95
2018-03-19T08:13:45.861Z,972.97
2018-03-19T08:14:45.794Z,973.01
2018-03-19T08:15:45.798Z,973.03
2018-03-19T08:16:46.480Z,973.01
2018-03-19T08:17:45.798Z,972.96
2018-03-19T08:18:45.842Z,973.01
2018-03-19T08:19:45.820Z,973.00
2018-03-19T08:20:45.796Z,973.04
2018-03-19T08:21:45.819Z,973.04
2018-03-19T08:22:45.797Z,972.98
2018-03-19T08:23:45.921Z,972.98
2018-03-19T08:24:45.804Z,972.96
2018-03-19T08:25:45.807Z,972.94
2018-03-19T08:26:45.811Z,972.96
2018-03-19T08:27:45.849Z,972.92
2018-03-19T08:28:45.857Z,972.91
2018-03-19T08:29:45.803Z,972.93
2018-03-19T08:30:45.831Z,972.92
2018-03-19T08:31:45.804Z,972.96
2018-03-19T08:32:45.807Z,972.96
2018-03-19T08:33:45.856Z,972.94
2018-03-19T08:34:45.799Z,972.97
2018-03-19T08:35:45.806Z,972.97
2018-03-19T08:36:45.831Z,972.95
2018-03-19T08:37:45.802Z,972.91
2018-03-19T08:38:45.846Z,972.91
2018-03-19T08:39:45.814Z,972.93
2018-03-19T08:40:45.832Z,972.91
2018-03-19T08:41:45.837Z,972.91
2018-03-19T08:42:45.804Z,972.92
2018-03-19T08:43:45.875Z,972.89
2018-03-19T08:44:45.814Z,972.85
2018-03-19T08:45:45.805Z,972.89
2018-03-19T08:46:45.820Z,972.84
2018-03-19T08:47:45.808Z,972.88
2018-03-19T08:48:45.851Z,972.96
2018-03-19T08:49:45.814Z,972.91
2018-03-19T08:50:45.820Z,972.89
2018-03-19T08:51:45.807Z,972.92
2018-03-19T08:52:45.815Z,972.90
2018-03-19T08:53:45.901Z,972.89
2018-03-19T08:54:45.842Z,972.82
2018-03-19T08:55:45.816Z,972.84
2018-03-19T08:56:45.836Z,972.82
2018-03-19T08:57:45.840Z,972.81
2018-03-19T08:58:45.861Z,972.85
2018-03-19T08:59:45.851Z,972.81
2018-03-19T09:00:45.879Z,972.80
2018-03-19T09:01:45.848Z,972.80
2018-03-19T09:02:45.855Z,972.80
2018-03-19T09:03:45.920Z,972.81
2018-03-19T09:04:45.838Z,972.80
2018-03-19T09:05:45.860Z,972.82
2018-03-19T09:06:45.898Z,972.76
2018-03-19T09:07:45.849Z,972.83
2018-03-19T09:08:45.851Z,972.85
2018-03-19T09:09:45.907Z,972.86
2018-03-19T09:10:45.861Z,972.81
2018-03-19T09:11:45.887Z,972.83
2018-03-19T09:12:45.855Z,972.78
2018-03-19T09:13:45.861Z,972.85
2018-03-19T09:14:45.903Z,972.80
2018-03-19T09:15:45.863Z,972.83
2018-03-19T09:16:45.874Z,972.80
2018-03-19T09:17:45.889Z,972.84
2018-03-19T09:18:45.893Z,972.82
2018-03-19T09:19:46.014Z,972.82
2018-03-19T09:20:45.884Z,972.84
2018-03-19T09:21:45.882Z,972.81
2018-03-19T09:22:45.893Z,972.78
2018-03-19T09:23:45.891Z,972.75
2018-03-19T09:24:45.939Z,972.75
2018-03-19T09:25:45.893Z,972.70
2018-03-19T09:26:45.924Z,972.73
2018-03-19T09:27:46.381Z,972.68
2018-03-19T09:28:45.939Z,972.68
2018-03-19T09:29:45.977Z,972.69
2018-03-19T09:30:45.953Z,972.71
2018-03-19T09:31:45.948Z,972.69
2018-03-19T09:32:45.931Z,972.71
2018-03-19T09:33:45.921Z,972.71
2018-03-19T09:34:45.941Z,972.71
2018-03-19T09:35:45.972Z,972.71
2018-03-19T09:36:45.942Z,972.72
2018-03-19T09:37:45.914Z,972.70
2018-03-19T09:38:45.965Z,972.72
2018-03-19T09:39:45.983Z,972.75
2018-03-19T09:40:46.003Z,972.76
2018-03-19T09:41:45.963Z,972.75
2018-03-19T09:42:45.978Z,972.75
2018-03-19T09:43:45.961Z,972.74
2018-03-19T09:44:46.270Z,972.70
2018-03-19T09:45:46.022Z,972.71
2018-03-19T09:46:46.291Z,972.75
2018-03-19T09:47:45.979Z,972.69
2018-03-19T09:48:45.992Z,972.74
2018-03-19T09:49:45.994Z,972.77
2018-03-19T09:50:46.051Z,972.69
2018-03-19T09:51:46.027Z,972.84
2018-03-19T09:52:45.986Z,972.79
2018-03-19T09:53:46.018Z,972.86
2018-03-19T09:54:45.995Z,972.85
2018-03-19T09:55:46.079Z,972.88
2018-03-19T09:56:46.019Z,972.91
2018-03-19T09:57:46.027Z,972.89
2018-03-19T09:58:46.051Z,972.87
2018-03-19T09:59:46.035Z,972.87
2018-03-19T10:00:46.045Z,972.88
2018-03-19T10:01:46.073Z,972.94
2018-03-19T10:02:46.107Z,972.96
2018-03-19T10:03:46.049Z,972.91
2018-03-19T10:04:46.063Z,972.93
2018-03-19T10:05:46.092Z,972.89
2018-03-19T10:06:46.148Z,972.91
2018-03-19T10:07:46.087Z,972.95
2018-03-19T10:08:46.105Z,972.94
2018-03-19T10:09:46.094Z,972.87
2018-03-19T10:10:46.135Z,972.85
2018-03-19T10:11:46.090Z,972.88
2018-03-19T10:12:46.143Z,972.91
2018-03-19T10:13:46.138Z,972.92
2018-03-19T10:14:46.120Z,972.88
2018-03-19T10:15:46.157Z,972.88
2018-03-19T10:16:46.237Z,972.84
2018-03-19T10:17:46.137Z,972.88
2018-03-19T10:18:46.137Z,972.85
2018-03-19T10:19:46.158Z,972.91
2018-03-19T10:20:46.198Z,972.86
2018-03-19T10:21:46.133Z,972.85
2018-03-19T10:22:46.187Z,972.78
2018-03-19T10:23:46.153Z,972.76
2018-03-19T10:24:46.171Z,972.73
2018-03-19T10:25:46.221Z,972.77
2018-03-19T10:26:46.180Z,972.81
2018-03-19T10:27:46.245Z,972.86
2018-03-19T10:28:46.178Z,972.83
2018-03-19T10:29:46.226Z,972.79
2018-03-19T10:30:46.713Z,972.80
2018-03-19T10:31:46.191Z,972.79
2018-03-19T10:32:46.251Z,972.76
2018-03-19T10:33:46.225Z,972.72
2018-03-19T10:34:46.218Z,972.78
2018-03-19T10:35:46.218Z,972.70
2018-03-19T10:36:46.234Z,972.81
2018-03-19T10:37:46.264Z,972.83
2018-03-19T10:38:46.265Z,972.80
2018-03-19T10:39:46.328Z,972.82
2018-03-19T10:40:46.263Z,972.66
2018-03-19T10:41:46.272Z,972.80
2018-03-19T10:42:46.305Z,972.84
2018-03-19T10:43:46.291Z,972.83
2018-03-19T10:44:46.262Z,972.82
2018-03-19T10:45:46.367Z,972.83
2018-03-19T10:46:46.909Z,972.80
2018-03-19T10:47:46.293Z,972.85
2018-03-19T10:48:46.356Z,972.81
2018-03-19T10:49:46.297Z,972.82
2018-03-19T10:50:46.313Z,972.77
2018-03-19T10:51:46.313Z,972.81
2018-03-19T10:52:46.363Z,972.83
2018-03-19T10:53:46.355Z,972.80
2018-03-19T10:54:46.327Z,972.77
2018-03-19T10:55:46.351Z,972.82
2018-03-19T10:56:46.337Z,972.84
2018-03-19T10:57:46.390Z,972.77
2018-03-19T10:58:46.367Z,972.82
2018-03-19T10:59:46.350Z,972.85
2018-03-19T11:00:46.369Z,972.92
2018-03-19T11:01:46.356Z,972.86
2018-03-19T11:02:46.385Z,972.85
2018-03-19T11:03:46.432Z,972.84
2018-03-19T11:04:46.394Z,972.85
2018-03-19T11:05:46.388Z,972.88
2018-03-19T11:06:46.383Z,972.80
2018-03-19T11:07:46.418Z,972.84
2018-03-19T11:08:46.470Z,972.79
2018-03-19T11:09:46.438Z,972.81
2018-03-19T11:10:46.409Z,972.80
2018-03-19T11:11:46.455Z,972.83
2018-03-19T11:12:46.446Z,972.78
2018-03-19T11:13:46.687Z,972.80
2018-03-19T11:14:46.459Z,972.76
2018-03-19T11:15:46.465Z,972.75
2018-03-19T11:16:46.472Z,972.76
2018-03-19T11:17:46.491Z,972.78
2018-03-19T11:18:46.546Z,972.76
2018-03-19T11:19:46.487Z,972.75
2018-03-19T11:20:46.485Z,972.69
2018-03-19T11:21:46.496Z,972.71
2018-03-19T11:22:46.530Z,972.76
2018-03-19T11:23:46.568Z,972.76
2018-03-19T11:24:46.558Z,972.66
2018-03-19T11:25:46.535Z,972.72
2018-03-19T11:26:46.537Z,972.65
2018-03-19T11:27:46.558Z,972.67
2018-03-19T11:28:46.547Z,972.60
2018-03-19T11:29:46.619Z,972.66
2018-03-19T11:30:46.552Z,972.63
2018-03-19T11:31:46.574Z,972.66
2018-03-19T11:32:46.558Z,972.61
2018-03-19T11:33:46.580Z,972.60
2018-03-19T11:34:47.060Z,972.56
2018-03-19T11:35:46.600Z,972.57
2018-03-19T11:36:46.586Z,972.57
2018-03-19T11:37:46.596Z,972.54
2018-03-19T11:38:47.481Z,972.59
2018-03-19T11:39:46.689Z,972.60
2018-03-19T11:40:47.369Z,972.62
2018-03-19T11:41:46.672Z,972.56
2018-03-19T11:42:46.635Z,972.60
2018-03-19T11:43:46.635Z,972.52
2018-03-19T11:44:46.713Z,972.59
2018-03-19T11:45:46.684Z,972.60
2018-03-19T11:46:46.696Z,972.53
2018-03-19T11:47:46.672Z,972.58
2018-03-19T11:48:46.711Z,972.60
2018-03-19T11:49:46.709Z,972.62
2018-03-19T11:50:46.725Z,972.63
2018-03-19T11:51:46.713Z,972.64
2018-03-19T11:52:46.696Z,972.59
2018-03-19T11:53:46.685Z,972.63
2018-03-19T11:54:46.708Z,972.58
2018-03-19T11:55:46.755Z,972.59
2018-03-19T11:56:46.738Z,972.59
2018-03-19T11:57:46.772Z,972.49
2018-03-19T11:58:46.723Z,972.56
2018-03-19T11:59:46.742Z,972.55
2018-03-19T12:00:46.782Z,972.55
2018-03-19T12:01:46.760Z,972.57
2018-03-19T12:02:46.761Z,972.53
2018-03-19T12:03:46.787Z,972.55
2018-03-19T12:04:46.766Z,972.49
2018-03-19T12:05:46.828Z,972.59
2018-03-19T12:06:46.782Z,972.51
2018-03-19T12:07:46.777Z,972.51
2018-03-19T12:08:46.806Z,972.59
2018-03-19T12:09:46.796Z,972.50
2018-03-19T12:10:47.155Z,972.51
2018-03-19T12:11:46.826Z,972.55
2018-03-19T12:12:46.842Z,972.54
2018-03-19T12:13:46.836Z,972.54
2018-03-19T12:14:46.838Z,972.59
2018-03-19T12:15:46.880Z,972.54
2018-03-19T12:16:46.825Z,972.52
2018-03-19T12:17:46.851Z,972.55
2018-03-19T12:18:46.859Z,972.55
2018-03-19T12:19:46.878Z,972.53
2018-03-19T12:20:46.913Z,972.50
2018-03-19T12:21:46.916Z,972.49
2018-03-19T12:22:46.895Z,972.46
2018-03-19T12:23:46.885Z,972.59
2018-03-19T12:24:46.878Z,972.54
2018-03-19T12:25:46.972Z,972.55
2018-03-19T12:26:46.960Z,972.54
2018-03-19T12:27:46.907Z,972.54
2018-03-19T12:28:46.928Z,972.52
2018-03-19T12:29:46.911Z,972.61
2018-03-19T12:30:46.994Z,972.58
2018-03-19T12:31:46.954Z,972.61
2018-03-19T12:32:46.925Z,972.61
2018-03-19T12:33:46.936Z,972.21
2018-03-19T12:34:46.947Z,972.63
2018-03-19T12:35:47.016Z,972.60
2018-03-19T12:36:46.956Z,972.65
2018-03-19T12:37:46.984Z,972.65
2018-03-19T12:38:47.028Z,972.43
2018-03-19T12:39:46.975Z,972.52
2018-03-19T12:40:46.999Z,972.23
2018-03-19T12:41:47.040Z,972.20
2018-03-19T12:42:46.990Z,972.64
2018-03-19T12:43:46.997Z,972.60
2018-03-19T12:44:46.996Z,972.64
2018-03-19T12:45:47.016Z,972.64
2018-03-19T12:46:47.051Z,972.61
2018-03-19T12:47:47.012Z,972.48
2018-03-19T12:48:47.021Z,972.54
2018-03-19T12:49:47.038Z,972.53
2018-03-19T12:50:47.021Z,972.43
2018-03-19T12:51:47.068Z,972.50
2018-03-19T12:52:47.030Z,972.44
2018-03-19T12:53:47.037Z,972.46